createdAt,value
2018-06-13T00:00:18.295Z,55.10
2018-06-13T00:10:23.037Z,55.10
2018-06-13T00:20:28.566Z,55.60
2018-06-13T00:30:33.341Z,55.10
2018-06-13T00:40:38.135Z,54.90
2018-06-13T00:50:42.998Z,55.30
2018-06-13T01:00:47.978Z,55.30
2018-06-13T01:10:52.865Z,55.30
2018-06-13T01:20:57.523Z,55.20
2018-06-13T01:31:02.400Z,55.30
2018-06-13T01:41:07.141Z,55.30
2018-06-13T01:51:11.950Z,55.30
2018-06-13T02:01:17.679Z,55.30
2018-06-13T02:11:22.520Z,55.30
2018-06-13T02:21:27.178Z,55.30
2018-06-13T02:31:31.901Z,55.30
2018-06-13T02:41:36.909Z,55.40
2018-06-13T02:51:41.819Z,55.40
2018-06-13T03:01:47.679Z,55.40
2018-06-13T03:11:52.445Z,55.30
2018-06-13T03:21:57.063Z,55.40
2018-06-13T03:32:01.832Z,55.30
2018-06-13T03:42:06.667Z,56.00
2018-06-13T03:52:11.392Z,55.40
2018-06-13T04:02:16.285Z,55.40
2018-06-13T04:12:21.068Z,55.30
2018-06-13T04:22:25.992Z,55.40
2018-06-13T04:32:30.927Z,55.50
2018-06-13T04:42:35.835Z,55.50
2018-06-13T04:52:41.002Z,55.50
2018-06-13T05:02:45.663Z,55.40
2018-06-13T05:12:50.545Z,55.50
2018-06-13T05:22:55.203Z,55.40
2018-06-13T05:33:00.722Z,55.40
2018-06-13T05:43:05.574Z,55.50
2018-06-13T05:53:10.291Z,55.50
2018-06-13T06:03:14.975Z,55.40
2018-06-13T06:13:21.512Z,55.50
2018-06-13T06:23:26.234Z,55.60
2018-06-13T06:33:32.138Z,55.50
2018-06-13T06:43:36.971Z,55.60
2018-06-13T06:53:41.720Z,55.60
2018-06-13T07:13:50.976Z,55.50
2018-06-13T07:23:55.676Z,55.40
2018-06-13T07:34:00.944Z,55.60
2018-06-13T07:44:05.995Z,55.60
2018-06-13T07:54:10.889Z,55.60
2018-06-13T08:04:15.559Z,55.60
2018-06-13T08:14:21.060Z,55.60
2018-06-13T08:24:25.859Z,55.60
2018-06-13T08:34:30.623Z,55.60
2018-06-13T08:44:35.335Z,55.70
2018-06-13T08:54:40.115Z,55.60
2018-06-13T09:04:44.866Z,55.60
2018-06-13T09:14:49.606Z,55.70
2018-06-13T09:24:54.336Z,55.70
2018-06-13T09:34:58.990Z,55.60
2018-06-13T09:45:03.704Z,55.60
2018-06-13T09:55:08.395Z,55.60
2018-06-13T10:05:13.146Z,55.70
2018-06-13T10:15:17.850Z,55.60
2018-06-13T10:25:22.599Z,55.60
2018-06-13T10:35:27.346Z,55.70
2018-06-13T10:45:32.139Z,55.70
2018-06-13T10:55:38.173Z,55.60
2018-06-13T11:05:42.855Z,55.70
2018-06-13T11:15:47.563Z,55.70
2018-06-13T11:25:52.500Z,55.70
2018-06-13T11:35:57.262Z,55.70
2018-06-13T11:46:01.949Z,55.60
2018-06-13T11:56:07.222Z,55.70
2018-06-13T12:06:12.055Z,55.70
2018-06-13T12:16:17.226Z,55.60
2018-06-13T12:26:22.007Z,55.80
2018-06-13T12:36:26.893Z,55.70
2018-06-13T12:46:31.828Z,55.80
2018-06-13T12:56:36.447Z,55.70
2018-06-13T13:06:41.538Z,55.80
2018-06-13T13:16:46.247Z,55.70
2018-06-13T13:26:51.115Z,55.80
2018-06-13T13:36:56.024Z,55.70
2018-06-13T13:47:00.827Z,55.80
2018-06-13T13:57:05.741Z,55.80
2018-06-13T14:07:10.845Z,55.80
2018-06-13T14:17:15.528Z,55.80
2018-06-13T14:27:20.328Z,55.90
2018-06-13T14:37:25.203Z,55.90
2018-06-13T14:47:29.901Z,55.90
2018-06-13T14:57:34.648Z,55.90
2018-06-13T15:07:39.403Z,55.90
2018-06-13T15:17:44.259Z,55.90
2018-06-13T15:27:49.000Z,55.90
2018-06-13T15:37:53.680Z,55.90
2018-06-13T15:47:58.929Z,55.90
2018-06-13T15:58:03.620Z,55.90
2018-06-13T16:08:08.387Z,55.90
2018-06-13T16:18:13.379Z,55.90
2018-06-13T16:28:18.096Z,56.00
2018-06-13T16:38:22.825Z,55.90
2018-06-13T16:48:28.080Z,56.00
2018-06-13T16:58:32.761Z,56.00
2018-06-13T17:08:38.107Z,56.00
2018-06-13T17:18:42.867Z,55.90
2018-06-13T17:28:47.945Z,56.00
2018-06-13T17:38:53.664Z,56.00
2018-06-13T17:48:58.333Z,55.90
2018-06-13T17:59:03.027Z,55.90
2018-06-13T18:09:09.980Z,56.00
2018-06-13T18:19:14.651Z,56.00
2018-06-13T18:29:20.245Z,55.90
2018-06-13T18:39:24.924Z,55.90
2018-06-13T18:49:29.673Z,56.00
2018-06-13T18:59:34.478Z,56.00
2018-06-13T19:09:39.207Z,56.00
2018-06-13T19:19:43.830Z,56.00
2018-06-13T19:29:48.687Z,56.00
2018-06-13T19:39:53.479Z,56.00
2018-06-13T19:49:58.250Z,56.00
2018-06-13T20:00:03.084Z,56.00
2018-06-13T20:10:07.856Z,56.00
2018-06-13T20:20:12.692Z,55.90
2018-06-13T20:30:22.595Z,56.00
2018-06-13T20:40:27.278Z,55.90
2018-06-13T20:50:32.023Z,56.00
2018-06-13T21:00:36.741Z,56.30
2018-06-13T21:10:41.502Z,55.90
2018-06-13T21:20:46.291Z,55.90
2018-06-13T21:30:51.082Z,55.90
2018-06-13T21:40:55.711Z,55.90
2018-06-13T21:51:00.412Z,55.90
2018-06-13T22:01:05.043Z,56.00
2018-06-13T22:11:09.649Z,55.90
2018-06-13T22:21:14.560Z,56.00
2018-06-13T22:31:19.550Z,56.00
2018-06-13T22:41:24.214Z,55.90
2018-06-13T22:51:29.329Z,56.00
2018-06-13T23:01:34.030Z,56.00
2018-06-13T23:11:38.813Z,56.00
2018-06-13T23:21:43.610Z,55.90
2018-06-13T23:31:48.324Z,55.90
2018-06-13T23:41:53.904Z,55.90
2018-06-13T23:51:58.843Z,55.40
